createdAt,value
2023-02-19T00:01:48.505Z,22.37
2023-02-19T00:04:18.024Z,23.90
2023-02-19T00:06:48.706Z,22.07
2023-02-19T00:09:18.123Z,23.10
2023-02-19T00:11:47.851Z,26.03
2023-02-19T00:14:20.027Z,24.10
2023-02-19T00:16:48.784Z,24.63
2023-02-19T00:19:18.931Z,23.60
2023-02-19T00:21:47.577Z,24.70
2023-02-19T00:24:16.262Z,25.20
2023-02-19T00:26:45.522Z,24.00
2023-02-19T00:29:15.562Z,25.50
2023-02-19T00:31:45.824Z,24.73
2023-02-19T00:34:15.499Z,25.63
2023-02-19T00:36:44.565Z,24.53
2023-02-19T00:39:16.211Z,24.60
2023-02-19T00:41:44.671Z,26.93
2023-02-19T00:44:13.845Z,27.97
2023-02-19T00:46:45.147Z,25.00
2023-02-19T00:49:18.489Z,25.83
2023-02-19T00:51:47.167Z,23.33
2023-02-19T00:54:15.628Z,24.00
2023-02-19T00:56:44.155Z,23.67
2023-02-19T00:59:12.673Z,21.60
2023-02-19T01:01:40.726Z,22.37
2023-02-19T01:04:10.221Z,22.50
2023-02-19T01:06:38.482Z,23.53
2023-02-19T01:09:07.175Z,22.23
2023-02-19T01:11:35.433Z,21.93
2023-02-19T01:14:05.041Z,21.93
2023-02-19T01:16:33.700Z,22.10
2023-02-19T01:19:01.871Z,21.93
2023-02-19T01:21:32.025Z,22.30
2023-02-19T01:24:00.140Z,22.30
2023-02-19T01:26:30.337Z,21.50
2023-02-19T01:28:58.823Z,21.53
2023-02-19T01:31:27.210Z,20.90
2023-02-19T01:33:57.856Z,21.83
2023-02-19T01:36:27.017Z,20.87
2023-02-19T01:38:57.231Z,20.97
2023-02-19T01:41:27.281Z,21.43
2023-02-19T01:44:01.554Z,21.43
2023-02-19T01:46:30.634Z,21.13
2023-02-19T01:49:04.708Z,22.03
2023-02-19T01:51:34.955Z,22.13
2023-02-19T01:54:07.091Z,21.43
2023-02-19T01:56:38.450Z,21.63
2023-02-19T01:59:08.597Z,20.27
2023-02-19T02:01:38.762Z,20.20
2023-02-19T02:04:10.998Z,20.50
2023-02-19T02:06:45.005Z,21.53
2023-02-19T02:09:33.229Z,21.43
2023-02-19T02:12:01.288Z,19.93
2023-02-19T02:14:32.600Z,21.23
2023-02-19T02:17:17.106Z,21.53
2023-02-19T02:20:12.269Z,20.87
2023-02-19T02:22:48.893Z,19.80
2023-02-19T02:25:56.268Z,20.67
2023-02-19T02:28:38.574Z,21.27
2023-02-19T02:31:14.381Z,20.53
2023-02-19T02:33:49.613Z,20.53
2023-02-19T02:36:21.756Z,20.53
2023-02-19T02:38:52.941Z,20.17
2023-02-19T02:41:22.067Z,19.67
2023-02-19T02:43:50.125Z,19.17
2023-02-19T02:46:24.062Z,19.13
2023-02-19T02:48:56.496Z,19.73
2023-02-19T02:51:28.749Z,18.90
2023-02-19T02:54:17.811Z,18.50
2023-02-19T02:56:47.765Z,18.57
2023-02-19T02:59:19.736Z,19.63
2023-02-19T03:02:11.150Z,19.67
2023-02-19T03:05:02.138Z,20.07
2023-02-19T03:07:36.587Z,18.73
2023-02-19T03:10:09.471Z,20.33
2023-02-19T03:12:59.332Z,19.90
2023-02-19T03:15:49.361Z,19.73
2023-02-19T03:18:37.992Z,19.60
2023-02-19T03:21:08.809Z,19.00
2023-02-19T03:23:55.234Z,20.20
2023-02-19T03:26:24.170Z,18.67
2023-02-19T03:29:11.773Z,20.70
2023-02-19T03:31:43.264Z,19.53
2023-02-19T03:34:18.666Z,19.37
2023-02-19T03:36:53.715Z,19.23
2023-02-19T03:39:23.736Z,18.97
2023-02-19T03:41:59.666Z,19.33
2023-02-19T03:44:38.262Z,19.80
2023-02-19T03:47:16.661Z,20.37
2023-02-19T03:49:50.690Z,20.67
2023-02-19T03:52:25.032Z,20.17
2023-02-19T03:55:00.029Z,20.43
2023-02-19T03:57:35.112Z,21.00
2023-02-19T04:00:10.932Z,25.67
2023-02-19T04:02:43.955Z,20.37
2023-02-19T04:05:17.894Z,20.57
2023-02-19T04:07:49.000Z,20.80
2023-02-19T04:10:19.610Z,21.57
2023-02-19T04:12:51.611Z,21.23
2023-02-19T04:15:24.516Z,19.30
2023-02-19T04:17:57.001Z,20.37
2023-02-19T04:20:31.145Z,20.10
2023-02-19T04:22:59.904Z,20.53
2023-02-19T04:25:30.310Z,20.47
2023-02-19T04:27:59.026Z,20.23
2023-02-19T04:30:27.361Z,20.67
2023-02-19T04:32:55.468Z,21.27
2023-02-19T04:35:23.661Z,21.17
2023-02-19T04:37:53.186Z,19.67
2023-02-19T04:40:21.260Z,20.50
2023-02-19T04:42:49.447Z,20.57
2023-02-19T04:45:17.782Z,20.73
2023-02-19T04:47:45.825Z,21.23
2023-02-19T04:50:14.297Z,20.67
2023-02-19T04:52:42.357Z,21.00
2023-02-19T04:55:11.913Z,20.77
2023-02-19T04:57:42.957Z,19.83
2023-02-19T05:00:14.569Z,20.17
2023-02-19T05:02:42.724Z,20.93
2023-02-19T05:05:10.813Z,20.07
2023-02-19T05:07:38.880Z,20.13
2023-02-19T05:10:08.403Z,19.53
2023-02-19T05:12:37.893Z,19.97
2023-02-19T05:15:06.366Z,18.83
2023-02-19T05:17:35.306Z,21.13
2023-02-19T05:20:03.544Z,18.63
2023-02-19T05:22:31.769Z,19.43
2023-02-19T05:25:00.132Z,18.73
2023-02-19T05:27:28.231Z,18.53
2023-02-19T05:29:57.593Z,19.77
2023-02-19T05:32:25.719Z,17.80
2023-02-19T05:34:53.777Z,18.63
2023-02-19T05:37:22.037Z,18.00
2023-02-19T05:39:50.336Z,18.43
2023-02-19T05:42:18.383Z,18.53
2023-02-19T05:44:46.484Z,18.13
2023-02-19T05:47:16.041Z,18.13
2023-02-19T05:49:44.042Z,18.13
2023-02-19T05:52:12.081Z,18.43
2023-02-19T05:54:40.284Z,18.77
2023-02-19T05:57:08.500Z,17.70
2023-02-19T05:59:36.545Z,18.87
2023-02-19T06:02:04.708Z,18.33
2023-02-19T06:04:34.096Z,18.47
2023-02-19T06:07:02.264Z,18.27
2023-02-19T06:09:30.365Z,18.37
2023-02-19T06:11:58.453Z,18.97
2023-02-19T06:14:26.827Z,19.30
2023-02-19T06:16:54.864Z,19.40
2023-02-19T06:19:22.882Z,19.17
2023-02-19T06:21:52.753Z,19.27
2023-02-19T06:24:20.787Z,18.40
2023-02-19T06:26:48.808Z,20.40
2023-02-19T06:29:18.224Z,19.50
2023-02-19T06:31:46.702Z,17.30
2023-02-19T06:34:14.845Z,18.77
2023-02-19T06:36:42.903Z,17.27
2023-02-19T06:39:12.315Z,18.77
2023-02-19T06:41:40.505Z,17.63
2023-02-19T06:44:08.619Z,17.90
2023-02-19T06:46:36.951Z,18.93
2023-02-19T06:49:07.534Z,17.47
2023-02-19T06:51:35.781Z,18.77
2023-02-19T06:54:03.931Z,17.20
2023-02-19T06:56:34.837Z,18.20
2023-02-19T06:59:04.943Z,18.23
2023-02-19T07:01:34.893Z,17.30
2023-02-19T07:04:03.150Z,17.97
2023-02-19T07:06:31.948Z,18.23
2023-02-19T07:09:00.520Z,17.27
2023-02-19T07:11:31.148Z,16.83
2023-02-19T07:14:05.304Z,17.87
2023-02-19T07:16:33.615Z,17.73
2023-02-19T07:19:02.339Z,17.53
2023-02-19T07:21:31.281Z,16.93
2023-02-19T07:23:59.540Z,17.73
2023-02-19T07:26:27.682Z,17.80
2023-02-19T07:28:56.036Z,18.50
2023-02-19T07:31:26.043Z,16.83
2023-02-19T07:33:54.190Z,16.67
2023-02-19T07:36:24.014Z,17.67
2023-02-19T07:38:56.117Z,16.83
2023-02-19T07:41:25.318Z,17.77
2023-02-19T07:43:54.520Z,18.47
2023-02-19T07:46:23.523Z,17.13
2023-02-19T07:48:53.105Z,18.33
2023-02-19T07:51:22.451Z,18.40
2023-02-19T07:53:51.852Z,17.40
2023-02-19T07:56:21.096Z,18.13
2023-02-19T07:58:49.642Z,17.97
2023-02-19T08:01:19.912Z,16.77
2023-02-19T08:03:50.082Z,17.20
2023-02-19T08:06:20.464Z,17.33
2023-02-19T08:08:48.767Z,15.77
2023-02-19T08:11:34.775Z,18.10
2023-02-19T08:14:02.879Z,17.30
2023-02-19T08:16:42.469Z,16.97
2023-02-19T08:19:11.674Z,17.50
2023-02-19T08:21:46.825Z,17.03
2023-02-19T08:24:15.163Z,16.80
2023-02-19T08:26:43.164Z,19.90
2023-02-19T08:29:11.174Z,17.43
2023-02-19T08:31:39.647Z,17.27
2023-02-19T08:34:10.680Z,18.40
2023-02-19T08:36:39.292Z,16.83
2023-02-19T08:39:11.672Z,17.53
2023-02-19T08:41:39.687Z,17.77
2023-02-19T08:44:07.829Z,17.53
2023-02-19T08:46:38.794Z,19.60
2023-02-19T08:49:07.041Z,17.97
2023-02-19T08:51:35.065Z,17.20
2023-02-19T08:54:04.760Z,18.63
2023-02-19T08:56:34.345Z,19.23
2023-02-19T08:59:02.604Z,19.63
2023-02-19T09:01:30.808Z,18.63
2023-02-19T09:03:59.097Z,19.60
2023-02-19T09:06:27.327Z,22.03
2023-02-19T09:08:55.607Z,20.57
2023-02-19T09:11:23.820Z,21.40
2023-02-19T09:13:53.773Z,20.77
2023-02-19T09:16:22.049Z,22.40
2023-02-19T09:18:50.139Z,22.80
2023-02-19T09:21:18.147Z,23.80
2023-02-19T09:23:46.134Z,24.30
2023-02-19T09:26:14.222Z,24.17
2023-02-19T09:28:43.202Z,23.40
2023-02-19T09:31:15.070Z,24.77
2023-02-19T09:33:44.921Z,27.20
2023-02-19T09:36:16.464Z,28.17
2023-02-19T09:38:44.705Z,30.53
2023-02-19T09:41:19.319Z,31.33
2023-02-19T09:43:47.762Z,33.80
2023-02-19T09:46:26.109Z,31.27
2023-02-19T09:48:55.806Z,30.83
2023-02-19T09:51:26.135Z,28.13
2023-02-19T09:53:56.290Z,27.10
2023-02-19T09:56:26.356Z,32.50
2023-02-19T09:58:57.003Z,28.10
2023-02-19T10:01:29.805Z,24.30
2023-02-19T10:03:57.935Z,27.17
2023-02-19T10:06:29.910Z,28.07
2023-02-19T10:09:12.778Z,29.77
2023-02-19T10:11:41.542Z,29.43
2023-02-19T10:14:16.000Z,32.67
2023-02-19T10:16:47.499Z,29.00
2023-02-19T10:19:16.873Z,30.73
2023-02-19T10:21:45.561Z,30.63
2023-02-19T10:24:21.576Z,29.47
2023-02-19T10:26:51.395Z,28.73
2023-02-19T10:29:19.859Z,29.27
2023-02-19T10:31:49.594Z,28.63
2023-02-19T10:34:23.665Z,29.23
2023-02-19T10:36:54.065Z,27.53
2023-02-19T10:39:42.260Z,30.43
2023-02-19T10:42:21.889Z,28.07
2023-02-19T10:44:55.594Z,27.53
2023-02-19T10:47:27.097Z,25.87
2023-02-19T10:49:58.416Z,31.73
2023-02-19T10:52:29.675Z,30.30
2023-02-19T10:54:59.390Z,32.00
2023-02-19T10:57:35.269Z,33.37
2023-02-19T11:00:20.050Z,32.43
2023-02-19T11:02:49.782Z,35.67
2023-02-19T11:05:21.009Z,32.03
2023-02-19T11:07:53.693Z,36.43
2023-02-19T11:10:31.324Z,31.53
2023-02-19T11:13:02.420Z,30.95
2023-02-19T11:15:33.583Z,36.50
2023-02-19T11:18:08.282Z,35.10
2023-02-19T11:20:36.733Z,34.17
2023-02-19T11:23:15.640Z,31.90
2023-02-19T11:25:47.836Z,32.70
2023-02-19T11:28:28.092Z,34.23
2023-02-19T11:30:56.168Z,32.53
2023-02-19T11:33:28.497Z,36.57
2023-02-19T11:36:18.205Z,36.27
2023-02-19T11:38:46.466Z,35.37
2023-02-19T11:41:22.928Z,33.73
2023-02-19T11:44:10.440Z,32.10
2023-02-19T11:46:45.995Z,35.60
2023-02-19T11:49:30.133Z,38.03
2023-02-19T11:52:20.998Z,39.20
2023-02-19T11:54:54.093Z,37.57
2023-02-19T11:57:39.314Z,39.30
2023-02-19T12:00:25.849Z,38.83
2023-02-19T12:03:25.644Z,40.10
2023-02-19T12:06:24.419Z,39.27
2023-02-19T12:09:21.714Z,38.03
2023-02-19T12:12:27.119Z,38.87
2023-02-19T12:15:20.182Z,37.10
2023-02-19T12:18:11.048Z,38.40
2023-02-19T12:20:47.934Z,36.50
2023-02-19T12:23:49.881Z,37.50
2023-02-19T12:26:24.715Z,38.00
2023-02-19T12:29:07.459Z,38.87
2023-02-19T12:31:58.484Z,36.20
2023-02-19T12:34:49.325Z,37.70
2023-02-19T12:37:34.494Z,36.90
2023-02-19T12:40:19.747Z,37.40
2023-02-19T12:43:03.273Z,41.27
2023-02-19T12:45:36.725Z,38.00
2023-02-19T12:48:13.420Z,39.00
2023-02-19T12:50:43.004Z,38.40
2023-02-19T12:53:28.022Z,39.87
2023-02-19T12:56:00.923Z,39.83
2023-02-19T12:58:33.764Z,39.30
2023-02-19T13:01:02.151Z,40.20
2023-02-19T13:03:34.785Z,37.10
2023-02-19T13:06:09.677Z,38.57
2023-02-19T13:09:03.506Z,36.53
2023-02-19T13:11:38.778Z,34.80
2023-02-19T13:14:15.534Z,36.00
2023-02-19T13:16:47.885Z,37.23
2023-02-19T13:19:16.163Z,35.37
2023-02-19T13:22:06.628Z,35.97
2023-02-19T13:24:40.265Z,35.70
2023-02-19T13:27:22.822Z,35.23
2023-02-19T13:30:23.856Z,36.57
2023-02-19T13:33:00.844Z,32.60
2023-02-19T13:36:01.587Z,32.17
2023-02-19T13:38:30.031Z,29.80
2023-02-19T13:41:00.233Z,33.00
2023-02-19T13:43:34.960Z,31.93
2023-02-19T13:46:06.869Z,30.23
2023-02-19T13:48:37.776Z,30.13
2023-02-19T13:51:39.974Z,27.30
2023-02-19T13:54:26.330Z,26.87
2023-02-19T13:57:29.630Z,29.40
2023-02-19T14:00:00.215Z,28.77
2023-02-19T14:02:34.259Z,29.00
2023-02-19T14:05:05.722Z,26.10
2023-02-19T14:07:48.997Z,26.70
2023-02-19T14:10:46.708Z,29.47
2023-02-19T14:13:53.117Z,27.13
2023-02-19T14:16:47.079Z,26.30
2023-02-19T14:19:15.964Z,29.80
2023-02-19T14:21:45.628Z,29.70
2023-02-19T14:24:16.198Z,28.70
2023-02-19T14:26:44.686Z,27.97
2023-02-19T14:29:16.624Z,27.73
2023-02-19T14:31:48.070Z,28.73
2023-02-19T14:34:22.469Z,29.73
2023-02-19T14:36:54.365Z,29.20
2023-02-19T14:39:25.753Z,28.87
2023-02-19T14:41:57.584Z,28.67
2023-02-19T14:44:28.400Z,29.67
2023-02-19T14:47:01.854Z,27.50
2023-02-19T14:49:37.460Z,30.87
2023-02-19T14:52:09.477Z,27.47
2023-02-19T14:54:43.244Z,32.63
2023-02-19T14:57:19.287Z,28.50
2023-02-19T14:59:55.536Z,28.67
2023-02-19T15:02:26.203Z,23.57
2023-02-19T15:04:55.052Z,23.70
2023-02-19T15:07:25.936Z,25.70
2023-02-19T15:09:58.680Z,23.43
2023-02-19T15:12:30.861Z,23.47
2023-02-19T15:15:03.221Z,24.70
2023-02-19T15:17:35.061Z,22.37
2023-02-19T15:20:09.876Z,22.40
2023-02-19T15:22:41.462Z,21.77
2023-02-19T15:25:16.990Z,21.20
2023-02-19T15:27:45.349Z,22.57
2023-02-19T15:30:22.675Z,21.97
2023-02-19T15:32:57.690Z,20.60
2023-02-19T15:35:27.787Z,20.53
2023-02-19T15:37:56.285Z,23.00
2023-02-19T15:40:30.318Z,21.23
2023-02-19T15:42:58.998Z,19.93
2023-02-19T15:45:32.575Z,21.00
2023-02-19T15:48:08.779Z,19.00
2023-02-19T15:50:44.108Z,18.67
2023-02-19T15:53:16.792Z,17.33
2023-02-19T15:55:48.684Z,18.47
2023-02-19T15:58:22.368Z,17.10
2023-02-19T16:00:53.519Z,17.27
2023-02-19T16:03:25.382Z,18.97
2023-02-19T16:06:04.732Z,15.17
2023-02-19T16:08:34.224Z,16.83
2023-02-19T16:11:04.269Z,16.40
2023-02-19T16:13:35.085Z,15.77
2023-02-19T16:16:17.144Z,18.30
2023-02-19T16:18:49.746Z,15.33
2023-02-19T16:21:21.808Z,17.90
2023-02-19T16:23:54.639Z,15.20
2023-02-19T16:26:23.171Z,14.77
2023-02-19T16:28:53.536Z,13.73
2023-02-19T16:31:23.779Z,12.83
2023-02-19T16:33:53.474Z,13.73
2023-02-19T16:36:35.549Z,13.13
2023-02-19T16:39:26.134Z,12.50
2023-02-19T16:42:18.241Z,12.73
2023-02-19T16:44:48.156Z,12.20
2023-02-19T16:47:45.133Z,12.27
2023-02-19T16:50:17.212Z,10.80
2023-02-19T16:52:52.810Z,10.90
2023-02-19T16:55:21.298Z,11.33
2023-02-19T16:57:49.475Z,11.53
2023-02-19T17:00:19.249Z,9.43
2023-02-19T17:02:48.587Z,11.20
2023-02-19T17:05:19.667Z,10.17
2023-02-19T17:07:47.892Z,9.47
2023-02-19T17:10:18.117Z,9.43
2023-02-19T17:13:03.559Z,9.47
2023-02-19T17:15:31.663Z,9.17
2023-02-19T17:17:59.708Z,10.30
2023-02-19T17:20:31.649Z,8.67
2023-02-19T17:23:00.021Z,10.10
2023-02-19T17:25:29.618Z,8.70
2023-02-19T17:27:57.838Z,9.77
2023-02-19T17:30:29.093Z,8.67
2023-02-19T17:32:57.478Z,8.87
2023-02-19T17:35:25.987Z,8.80
2023-02-19T17:37:55.706Z,9.67
2023-02-19T17:40:32.857Z,10.47
2023-02-19T17:43:01.396Z,11.27
2023-02-19T17:45:29.992Z,11.40
2023-02-19T17:47:58.314Z,12.90
2023-02-19T17:50:29.089Z,11.97
2023-02-19T17:52:59.387Z,15.90
2023-02-19T17:55:27.768Z,24.17
2023-02-19T17:57:56.247Z,40.90
2023-02-19T18:00:26.176Z,48.00
2023-02-19T18:02:54.983Z,24.60
2023-02-19T18:05:23.478Z,25.67
2023-02-19T18:07:52.324Z,21.80
2023-02-19T18:10:24.555Z,21.00
2023-02-19T18:12:52.862Z,20.67
2023-02-19T18:15:23.133Z,20.50
2023-02-19T18:17:51.338Z,19.17
2023-02-19T18:20:21.897Z,21.30
2023-02-19T18:22:50.109Z,20.93
2023-02-19T18:25:19.387Z,21.17
2023-02-19T18:27:49.346Z,19.67
2023-02-19T18:30:20.306Z,18.03
2023-02-19T18:32:48.933Z,23.37
2023-02-19T18:35:18.340Z,24.97
2023-02-19T18:37:51.496Z,20.70
2023-02-19T18:40:20.314Z,21.47
2023-02-19T18:42:50.083Z,21.67
2023-02-19T18:45:18.768Z,22.27
2023-02-19T18:47:48.494Z,22.80
2023-02-19T18:50:17.107Z,23.50
2023-02-19T18:52:45.575Z,24.77
2023-02-19T18:55:14.097Z,34.73
2023-02-19T18:57:42.410Z,61.27
2023-02-19T19:00:17.366Z,42.60
2023-02-19T19:02:49.740Z,41.93
2023-02-19T19:05:22.716Z,60.97
2023-02-19T19:07:51.291Z,43.60
2023-02-19T19:10:19.953Z,41.83
2023-02-19T19:12:48.465Z,33.37
2023-02-19T19:15:18.975Z,32.97
2023-02-19T19:17:47.420Z,34.63
2023-02-19T19:20:17.310Z,31.90
2023-02-19T19:22:45.599Z,32.47
2023-02-19T19:25:13.851Z,32.03
2023-02-19T19:27:42.074Z,31.60
2023-02-19T19:30:10.649Z,31.13
2023-02-19T19:32:43.151Z,34.00
2023-02-19T19:35:11.613Z,30.43
2023-02-19T19:37:39.633Z,33.57
2023-02-19T19:40:09.432Z,30.70
2023-02-19T19:42:37.582Z,30.73
2023-02-19T19:45:06.438Z,32.87
2023-02-19T19:47:34.599Z,29.80
2023-02-19T19:50:04.270Z,30.70
2023-02-19T19:52:32.473Z,30.03
2023-02-19T19:55:00.566Z,30.17
2023-02-19T19:57:28.684Z,29.43
2023-02-19T19:59:56.820Z,30.57
2023-02-19T20:02:24.867Z,29.33
2023-02-19T20:04:53.172Z,27.40
2023-02-19T20:07:22.554Z,28.80
2023-02-19T20:09:51.279Z,28.17
2023-02-19T20:12:20.052Z,30.27
2023-02-19T20:14:48.378Z,28.00
2023-02-19T20:17:16.714Z,28.50
2023-02-19T20:19:46.760Z,26.90
2023-02-19T20:22:14.977Z,25.20
2023-02-19T20:24:44.447Z,26.23
2023-02-19T20:27:12.599Z,24.87
2023-02-19T20:29:40.714Z,26.27
2023-02-19T20:32:09.129Z,25.73
2023-02-19T20:34:38.191Z,27.13
2023-02-19T20:37:06.757Z,26.83
2023-02-19T20:39:37.707Z,29.00
2023-02-19T20:42:07.815Z,27.50
2023-02-19T20:44:35.901Z,29.60
2023-02-19T20:47:04.125Z,27.50
2023-02-19T20:49:34.260Z,27.63
2023-02-19T20:52:05.926Z,31.13
2023-02-19T20:54:35.480Z,30.37
2023-02-19T20:57:06.714Z,29.67
2023-02-19T20:59:35.955Z,29.60
2023-02-19T21:02:05.318Z,31.37
2023-02-19T21:04:33.461Z,33.10
2023-02-19T21:07:01.713Z,33.67
2023-02-19T21:09:32.500Z,31.77
2023-02-19T21:12:00.548Z,70.80
2023-02-19T21:14:29.999Z,44.70
2023-02-19T21:16:58.074Z,34.90
2023-02-19T21:19:26.612Z,34.00
2023-02-19T21:21:54.700Z,33.37
2023-02-19T21:24:23.171Z,30.80
2023-02-19T21:26:51.522Z,40.73
2023-02-19T21:29:21.546Z,45.10
2023-02-19T21:31:54.580Z,36.20
2023-02-19T21:34:25.909Z,46.97
2023-02-19T21:36:54.971Z,40.97
2023-02-19T21:39:25.460Z,50.77
2023-02-19T21:41:53.580Z,43.83
2023-02-19T21:44:22.324Z,70.97
2023-02-19T21:46:51.824Z,87.13
2023-02-19T21:49:19.864Z,82.83
2023-02-19T21:51:49.758Z,61.40
2023-02-19T21:54:21.179Z,51.13
2023-02-19T21:56:49.757Z,51.63
2023-02-19T21:59:17.875Z,56.73
2023-02-19T22:01:46.262Z,61.20
2023-02-19T22:04:17.285Z,57.50
2023-02-19T22:06:45.851Z,52.50
2023-02-19T22:09:14.871Z,52.63
2023-02-19T22:11:43.317Z,45.27
2023-02-19T22:14:11.926Z,47.40
2023-02-19T22:16:42.817Z,44.43
2023-02-19T22:19:12.061Z,51.50
2023-02-19T22:21:45.389Z,47.27
2023-02-19T22:24:17.576Z,47.10
2023-02-19T22:26:46.065Z,50.53
2023-02-19T22:29:15.694Z,48.77
2023-02-19T22:31:44.695Z,59.50
2023-02-19T22:34:13.084Z,63.33
2023-02-19T22:36:43.258Z,58.87
2023-02-19T22:39:18.129Z,58.93
2023-02-19T22:41:46.404Z,55.43
2023-02-19T22:44:14.767Z,55.37
2023-02-19T22:46:48.229Z,46.53
2023-02-19T22:49:17.157Z,45.07
2023-02-19T22:51:52.329Z,50.13
2023-02-19T22:54:22.019Z,48.47
2023-02-19T22:56:50.009Z,47.43
2023-02-19T22:59:18.247Z,42.03
2023-02-19T23:01:46.448Z,47.80
2023-02-19T23:04:14.780Z,43.53
2023-02-19T23:06:44.071Z,42.80
2023-02-19T23:09:17.681Z,40.83
2023-02-19T23:11:45.695Z,44.93
2023-02-19T23:14:14.434Z,41.33
2023-02-19T23:16:43.053Z,44.40
2023-02-19T23:19:14.051Z,47.60
2023-02-19T23:21:44.304Z,42.23
2023-02-19T23:24:15.328Z,45.80
2023-02-19T23:26:44.716Z,47.53
2023-02-19T23:29:15.762Z,47.53
2023-02-19T23:31:43.917Z,48.07
2023-02-19T23:34:12.615Z,45.70
2023-02-19T23:36:44.936Z,43.07
2023-02-19T23:39:16.841Z,42.30
2023-02-19T23:41:48.634Z,41.40
2023-02-19T23:44:16.775Z,46.67
2023-02-19T23:46:44.996Z,46.73
2023-02-19T23:49:15.642Z,44.70
2023-02-19T23:51:46.664Z,41.40
2023-02-19T23:54:16.376Z,45.53
2023-02-19T23:56:44.382Z,41.70
2023-02-19T23:59:12.468Z,41.20
